Time;durP1;ratioP1;P1;durP2;ratioP2;P2;SDS_P1;SDS_P2;PMS_P1;PMS_P2;Temp;Humidity;BMP_temperature;BMP_pressure;BME280_temperature;BME280_humidity;BME280_pressure;Samples;Min_cycle;Max_cycle;Signal;HPM_P1;HPM_P2
2021/04/01 00:01:24;;;;;;;8.02;4.63;;;12.10;62.30;;;;;;5107374;28;27386;-61
2021/04/01 00:04:09;;;;;;;8.88;4.88;;;12.10;62.30;;;;;;5107324;28;27336;-61
2021/04/01 00:06:53;;;;;;;10.77;4.82;;;12.10;62.20;;;;;;5107404;28;27407;-61
2021/04/01 00:09:38;;;;;;;9.48;4.38;;;12.10;62.40;;;;;;5107465;28;27329;-61
2021/04/01 00:12:22;;;;;;;7.80;4.63;;;12.00;62.50;;;;;;5107309;28;27456;-61
2021/04/01 00:15:08;;;;;;;9.90;4.97;;;12.00;62.60;;;;;;5088310;28;28020;-61
2021/04/01 00:17:52;;;;;;;9.98;4.15;;;11.90;62.40;;;;;;5106914;28;27416;-61
2021/04/01 00:20:37;;;;;;;8.05;4.95;;;11.90;62.60;;;;;;5108152;28;27416;-61
2021/04/01 00:23:22;;;;;;;10.40;4.53;;;11.90;62.80;;;;;;5107094;28;27404;-61
2021/04/01 00:26:06;;;;;;;9.98;4.97;;;11.80;62.70;;;;;;5107140;28;27981;-61
2021/04/01 00:28:51;;;;;;;6.80;4.82;;;11.80;62.80;;;;;;5106172;28;27423;-61
2021/04/01 00:31:35;;;;;;;7.40;4.50;;;11.80;62.80;;;;;;5107039;28;27422;-60
2021/04/01 00:34:20;;;;;;;6.32;4.38;;;11.70;62.90;;;;;;5106844;28;26865;-61
2021/04/01 00:37:05;;;;;;;8.07;4.55;;;11.70;62.80;;;;;;5106620;28;27467;-60
2021/04/01 00:39:49;;;;;;;6.57;4.60;;;11.70;62.90;;;;;;5106598;28;27510;-65
2021/04/01 00:42:34;;;;;;;11.02;4.35;;;11.60;63.10;;;;;;5106841;28;27443;-61
2021/04/01 00:45:19;;;;;;;8.13;4.88;;;11.60;63.00;;;;;;5106262;28;27454;-60
2021/04/01 00:48:03;;;;;;;9.10;5.28;;;11.60;63.30;;;;;;5106448;28;27963;-61
2021/04/01 00:50:48;;;;;;;7.90;4.28;;;11.50;63.30;;;;;;5103378;28;27506;-61
2021/04/01 00:53:33;;;;;;;7.47;4.88;;;11.50;63.20;;;;;;5106408;28;27333;-61
2021/04/01 00:56:18;;;;;;;8.25;4.45;;;11.50;63.50;;;;;;5106817;28;27562;-60
2021/04/01 00:59:02;;;;;;;9.35;4.70;;;11.50;63.70;;;;;;5106505;28;27381;-61
2021/04/01 01:01:50;;;;;;;7.15;4.72;;;11.40;63.70;;;;;;5091114;28;27344;-60
2021/04/01 01:04:35;;;;;;;12.18;4.90;;;11.40;63.70;;;;;;5077667;28;27477;-61
2021/04/01 01:07:19;;;;;;;9.05;4.70;;;11.40;63.70;;;;;;5091281;28;27471;-61
2021/04/01 01:10:15;;;;;;;6.60;4.40;;;11.30;63.90;;;;;;5106130;28;27439;-61
2021/04/01 01:13:01;;;;;;;7.28;5.03;;;11.30;63.70;;;;;;5105485;28;27570;-60
2021/04/01 01:15:45;;;;;;;8.52;4.20;;;11.30;63.70;;;;;;5090605;28;27484;-63
2021/04/01 01:18:30;;;;;;;5.53;4.20;;;11.30;63.80;;;;;;5105958;28;27458;-60
2021/04/01 01:21:15;;;;;;;6.88;3.88;;;11.20;63.90;;;;;;5102923;28;27442;-60
2021/04/01 01:23:59;;;;;;;8.75;4.53;;;11.20;63.90;;;;;;5090939;28;27416;-61
2021/04/01 01:26:44;;;;;;;8.07;5.18;;;11.10;64.00;;;;;;5076757;28;27432;-61
2021/04/01 01:29:29;;;;;;;7.32;4.43;;;11.10;64.10;;;;;;5105762;28;27412;-64
2021/04/01 01:32:18;;;;;;;6.05;4.07;;;11.10;64.20;;;;;;5105862;28;27446;-60
2021/04/01 01:35:17;;;;;;;6.32;4.45;;;11.10;64.30;;;;;;5105721;28;27369;-61
2021/04/01 01:38:04;;;;;;;8.35;4.45;;;11.10;64.30;;;;;;5106014;28;27325;-61
2021/04/01 01:40:48;;;;;;;8.73;4.22;;;11.10;64.50;;;;;;5105314;27;27492;-61
2021/04/01 01:43:34;;;;;;;11.45;4.43;;;11.00;64.40;;;;;;5104784;28;28155;-61
2021/04/01 01:46:18;;;;;;;8.65;4.60;;;11.00;64.40;;;;;;5105481;28;27508;-62
2021/04/01 01:49:02;;;;;;;7.68;4.18;;;11.00;64.40;;;;;;5105880;28;27393;-61
2021/04/01 01:51:47;;;;;;;6.00;4.32;;;10.90;64.60;;;;;;5105793;28;27389;-61
2021/04/01 01:54:31;;;;;;;8.55;4.05;;;10.90;64.50;;;;;;5105251;28;27321;-61
2021/04/01 01:57:15;;;;;;;8.93;3.97;;;10.90;64.70;;;;;;5102073;28;27531;-61
2021/04/01 02:00:01;;;;;;;6.22;4.30;;;10.90;64.70;;;;;;5105695;28;27416;-60
2021/04/01 02:02:58;;;;;;;5.30;3.75;;;10.80;64.70;;;;;;5105259;28;27324;-61
2021/04/01 02:05:43;;;;;;;6.45;3.92;;;10.80;64.90;;;;;;5090420;28;28053;-61
2021/04/01 02:08:27;;;;;;;9.50;4.25;;;10.80;65.00;;;;;;5104977;28;27312;-61
2021/04/01 02:11:11;;;;;;;11.40;4.43;;;10.80;64.90;;;;;;5102130;28;27305;-61
2021/04/01 02:13:56;;;;;;;7.15;4.32;;;10.80;65.00;;;;;;5105359;28;27308;-61
2021/04/01 02:16:41;;;;;;;5.60;4.38;;;10.70;65.00;;;;;;5105282;28;27989;-61
2021/04/01 02:19:26;;;;;;;7.65;3.97;;;10.70;64.90;;;;;;5105256;28;27352;-61
2021/04/01 02:22:10;;;;;;;9.32;4.20;;;10.70;65.00;;;;;;5105367;28;27312;-61
2021/04/01 02:24:55;;;;;;;9.68;3.90;;;10.70;65.20;;;;;;5104986;28;27480;-61
2021/04/01 02:27:40;;;;;;;11.52;4.25;;;10.60;65.20;;;;;;5104903;28;27387;-61
2021/04/01 02:30:24;;;;;;;6.45;4.15;;;10.60;65.20;;;;;;5105038;28;27375;-61
2021/04/01 02:33:09;;;;;;;8.25;4.43;;;10.60;65.30;;;;;;5105163;28;27339;-61
2021/04/01 02:35:54;;;;;;;7.95;3.92;;;10.60;65.30;;;;;;5102816;28;27413;-61
2021/04/01 02:38:38;;;;;;;7.78;4.07;;;10.50;65.30;;;;;;5104851;28;27457;-61
2021/04/01 02:41:22;;;;;;;6.30;4.18;;;10.50;65.30;;;;;;5104688;28;27466;-60
2021/04/01 02:44:07;;;;;;;7.90;4.95;;;10.50;65.40;;;;;;5104056;28;27688;-61
2021/04/01 02:46:51;;;;;;;6.95;4.47;;;10.50;65.40;;;;;;5104591;28;27416;-61
2021/04/01 02:49:35;;;;;;;7.68;4.15;;;10.40;65.50;;;;;;5104778;28;27470;-60
2021/04/01 02:52:20;;;;;;;6.88;4.43;;;10.40;65.60;;;;;;5104242;27;27412;-60
2021/04/01 02:55:05;;;;;;;7.50;4.10;;;10.40;65.70;;;;;;5104365;28;27459;-61
2021/04/01 02:57:50;;;;;;;4.70;3.88;;;10.40;65.70;;;;;;5089621;28;27421;-60
2021/04/01 03:00:37;;;;;;;9.85;4.03;;;10.40;65.80;;;;;;5104632;28;27864;-61
2021/04/01 03:03:31;;;;;;;6.38;3.97;;;10.30;65.70;;;;;;5103486;28;27423;-60
2021/04/01 03:06:15;;;;;;;4.22;3.60;;;10.30;65.70;;;;;;5104718;28;27423;-61
2021/04/01 03:09:00;;;;;;;5.75;4.55;;;10.30;65.80;;;;;;5104314;28;27479;-61
2021/04/01 03:11:44;;;;;;;5.10;3.58;;;10.30;65.70;;;;;;5104523;28;27498;-61
2021/04/01 03:14:29;;;;;;;7.90;3.67;;;10.30;65.80;;;;;;5104376;28;27459;-61
2021/04/01 03:17:13;;;;;;;9.13;4.25;;;10.30;65.90;;;;;;5104532;28;27489;-61
2021/04/01 03:19:58;;;;;;;6.28;3.35;;;10.20;65.70;;;;;;5104441;28;27317;-61
2021/04/01 03:22:43;;;;;;;4.93;3.83;;;10.20;65.90;;;;;;5104138;28;27344;-61
2021/04/01 03:25:27;;;;;;;8.55;4.75;;;10.20;65.90;;;;;;5104466;28;27379;-60
2021/04/01 03:28:12;;;;;;;7.38;4.05;;;10.10;65.90;;;;;;5104503;28;27389;-61
2021/04/01 03:31:03;;;;;;;5.32;3.88;;;10.10;66.10;;;;;;5100836;28;27316;-61
2021/04/01 03:33:48;;;;;;;6.72;4.63;;;10.10;66.10;;;;;;5103913;28;27473;-60
2021/04/01 03:36:32;;;;;;;5.85;4.05;;;10.10;66.20;;;;;;5103970;28;27458;-61
2021/04/01 03:39:17;;;;;;;7.72;4.30;;;10.10;66.10;;;;;;5104019;28;27424;-60
2021/04/01 03:42:01;;;;;;;8.77;4.65;;;10.10;66.20;;;;;;5103889;28;27466;-61
2021/04/01 03:44:46;;;;;;;4.18;3.60;;;10.00;66.30;;;;;;5103125;28;27884;-60
2021/04/01 03:47:31;;;;;;;5.47;4.32;;;10.00;66.20;;;;;;5103810;28;27521;-61
2021/04/01 03:50:15;;;;;;;6.97;4.35;;;10.00;66.30;;;;;;5104119;28;27400;-61
2021/04/01 03:53:00;;;;;;;6.28;3.60;;;10.00;66.60;;;;;;5103811;28;27470;-60
2021/04/01 03:55:44;;;;;;;6.72;4.00;;;10.00;66.60;;;;;;5103676;28;27454;-61
2021/04/01 04:04:51;;;;;;;7.25;4.43;;;9.90;66.70;;;;;;5067791;28;27524;-61
2021/04/01 04:10:29;;;;;;;8.75;4.18;;;9.80;66.60;;;;;;5107320;28;27401;-61
2021/04/01 04:13:22;;;;;;;5.63;3.90;;;9.80;66.80;;;;;;5104139;28;27466;-60
2021/04/01 04:16:06;;;;;;;6.85;4.00;;;9.80;66.80;;;;;;5106889;28;27395;-60
2021/04/01 04:18:51;;;;;;;7.25;3.97;;;9.80;66.90;;;;;;5106877;28;27870;-60
2021/04/01 04:21:36;;;;;;;4.65;3.78;;;9.80;66.80;;;;;;5107158;28;27407;-61
2021/04/01 04:24:20;;;;;;;5.03;3.92;;;9.80;66.90;;;;;;5107193;28;27399;-60
2021/04/01 04:27:22;;;;;;;7.95;4.40;;;9.80;66.90;;;;;;5103516;28;27383;-60
2021/04/01 04:30:08;;;;;;;8.50;3.88;;;9.70;66.90;;;;;;5103697;28;27387;-61
2021/04/01 04:32:52;;;;;;;8.95;4.32;;;9.70;67.10;;;;;;5106975;28;27458;-61
2021/04/01 04:35:37;;;;;;;4.72;3.97;;;9.70;67.10;;;;;;5091481;28;27424;-61
2021/04/01 04:38:21;;;;;;;6.60;3.40;;;9.70;67.20;;;;;;5103338;28;27404;-61
2021/04/01 04:41:06;;;;;;;9.07;3.72;;;9.70;67.30;;;;;;5106549;28;27503;-61
2021/04/01 04:43:50;;;;;;;6.10;3.58;;;9.70;67.20;;;;;;5084836;28;27440;-61
2021/04/01 04:46:35;;;;;;;7.88;3.72;;;9.70;67.30;;;;;;5086448;28;27469;-61
2021/04/01 04:49:19;;;;;;;7.93;3.75;;;9.60;67.30;;;;;;5086035;28;27538;-61
2021/04/01 04:52:04;;;;;;;4.80;4.15;;;9.60;67.50;;;;;;5085923;28;27487;-61
2021/04/01 04:54:48;;;;;;;6.10;3.90;;;9.60;67.40;;;;;;5085314;28;27442;-62
2021/04/01 05:06:53;;;;;;;9.35;3.63;;;9.60;67.50;;;;;;5082509;28;27397;-61
2021/04/01 05:09:38;;;;;;;6.45;3.95;;;9.60;67.50;;;;;;5085992;28;27372;-60
2021/04/01 05:12:23;;;;;;;6.90;3.70;;;9.60;67.50;;;;;;5085937;28;27616;-60
2021/04/01 05:15:08;;;;;;;5.15;3.45;;;9.60;67.50;;;;;;5085330;28;27454;-61
2021/04/01 05:17:58;;;;;;;8.50;4.18;;;9.60;67.60;;;;;;5082341;28;27471;-60
2021/04/01 05:20:44;;;;;;;14.35;4.55;;;9.60;67.60;;;;;;5085231;28;27379;-61
2021/04/01 05:23:42;;;;;;;9.70;4.47;;;9.60;68.30;;;;;;5085834;28;27360;-61
2021/04/01 05:29:17;;;;;;;6.80;4.07;;;9.60;67.40;;;;;;5082406;28;27412;-61
2021/04/01 05:32:03;;;;;;;5.38;3.55;;;9.70;67.60;;;;;;5085694;28;27402;-60
2021/04/01 05:34:48;;;;;;;7.18;4.20;;;9.70;67.30;;;;;;5085208;28;27339;-63
2021/04/01 05:37:32;;;;;;;6.10;4.28;;;9.70;67.40;;;;;;5085569;28;27400;-63
2021/04/01 05:40:18;;;;;;;7.00;4.47;;;9.70;67.30;;;;;;5081957;28;27334;-61
2021/04/01 05:43:07;;;;;;;5.38;4.10;;;9.80;67.30;;;;;;5068533;28;27489;-61
2021/04/01 05:46:04;;;;;;;9.05;4.28;;;9.80;67.20;;;;;;5105540;28;27424;-60
2021/04/01 05:49:03;;;;;;;8.18;4.55;;;9.90;67.10;;;;;;5105023;28;27360;-63
2021/04/01 06:04:42;;;;;;;8.27;4.30;;;10.30;66.30;;;;;;5093048;28;27345;-60
2021/04/01 06:07:30;;;;;;;6.53;4.35;;;10.40;66.00;;;;;;5102279;28;27448;-61
2021/04/01 06:10:15;;;;;;;7.50;4.03;;;10.60;66.10;;;;;;5090823;28;27384;-61
2021/04/01 06:13:07;;;;;;;8.75;4.47;;;10.70;65.70;;;;;;5075968;28;27922;-61
2021/04/01 06:15:52;;;;;;;10.40;4.28;;;10.80;65.60;;;;;;5103096;28;27485;-61
2021/04/01 06:18:36;;;;;;;10.85;4.00;;;11.00;65.20;;;;;;5102091;28;27430;-60
2021/04/01 06:21:25;;;;;;;9.50;4.47;;;11.20;65.20;;;;;;5075584;28;26950;-61
2021/04/01 06:24:21;;;;;;;9.60;5.22;;;11.40;64.80;;;;;;5105230;28;27359;-60
2021/04/01 06:27:22;;;;;;;8.43;4.55;;;11.60;64.50;;;;;;5104275;28;27379;-61
2021/04/01 06:30:23;;;;;;;11.15;5.05;;;11.80;64.70;;;;;;5104935;28;27483;-61
2021/04/01 06:33:11;;;;;;;9.13;5.07;;;11.90;64.60;;;;;;5104835;28;27329;-61
2021/04/01 06:35:59;;;;;;;17.63;6.53;;;12.10;64.10;;;;;;5104443;28;27491;-61
2021/04/01 06:38:44;;;;;;;9.48;6.05;;;12.20;63.90;;;;;;5105081;28;27604;-61
2021/04/01 06:41:29;;;;;;;9.98;7.10;;;12.40;63.80;;;;;;5105041;28;27325;-61
2021/04/01 06:44:25;;;;;;;8.77;6.13;;;12.50;63.80;;;;;;5102177;28;27652;-60
2021/04/01 06:47:11;;;;;;;11.93;7.20;;;12.70;62.80;;;;;;5103942;28;27465;-61
2021/04/01 06:52:44;;;;;;;17.83;7.95;;;13.30;61.20;;;;;;5075206;28;27421;-61
2021/04/01 06:55:34;;;;;;;12.40;7.38;;;13.70;60.70;;;;;;5089990;28;27515;-62
2021/04/01 06:58:46;;;;;;;15.35;7.72;;;14.10;60.80;;;;;;5104701;28;27958;-61
2021/04/01 07:04:21;;;;;;;13.52;7.47;;;14.90;58.20;;;;;;5104371;28;27417;-61
2021/04/01 07:07:14;;;;;;;20.10;7.45;;;15.50;57.60;;;;;;5086205;28;27395;-61
2021/04/01 07:12:50;;;;;;;12.63;6.88;;;17.30;53.90;;;;;;5104544;28;27470;-61
2021/04/01 07:15:38;;;;;;;8.57;6.00;;;18.00;52.50;;;;;;5089202;28;27486;-61
2021/04/01 07:18:40;;;;;;;12.20;5.85;;;18.90;51.20;;;;;;5104194;28;27404;-62
2021/04/01 07:31:11;;;;;;;13.07;4.95;;;22.30;44.50;;;;;;5104073;28;27493;-61
2021/04/01 07:46:32;;;;;;;7.80;4.38;;;24.90;40.90;;;;;;5107367;28;27420;-61
2021/04/01 07:49:23;;;;;;;7.75;4.82;;;25.50;40.00;;;;;;5107372;28;27404;-61
2021/04/01 07:52:08;;;;;;;6.00;3.63;;;25.60;39.70;;;;;;5107684;28;27483;-61
2021/04/01 07:55:08;;;;;;;5.68;4.28;;;25.80;39.60;;;;;;5107425;28;27474;-65
2021/04/01 08:04:10;;;;;;;6.68;3.67;;;27.20;37.70;;;;;;5094192;28;27404;-61
2021/04/01 08:07:16;;;;;;;5.78;3.92;;;27.60;37.20;;;;;;5107190;28;27325;-62
2021/04/01 08:10:06;;;;;;;6.15;3.72;;;28.20;36.90;;;;;;5107323;28;27415;-61
2021/04/01 08:12:55;;;;;;;9.60;3.35;;;28.20;35.90;;;;;;5079098;28;27452;-61
2021/04/01 08:15:44;;;;;;;8.05;4.35;;;28.40;36.40;;;;;;5103801;28;27371;-61
2021/04/01 08:18:33;;;;;;;8.43;3.60;;;28.30;35.70;;;;;;5106867;28;27550;-61
2021/04/01 08:21:18;;;;;;;7.57;3.40;;;28.10;36.80;;;;;;5092597;28;27483;-61
2021/04/01 08:24:06;;;;;;;7.35;3.90;;;28.10;37.10;;;;;;5106774;28;27424;-61
2021/04/01 08:27:09;;;;;;;9.80;3.38;;;28.50;36.80;;;;;;5107176;28;27435;-61
2021/04/01 08:35:42;;;;;;;5.72;3.55;;;28.70;37.10;;;;;;5076880;28;27463;-61
2021/04/01 08:38:26;;;;;;;6.10;3.40;;;29.40;36.40;;;;;;5106920;28;27527;-61
2021/04/01 08:41:34;;;;;;;5.53;3.58;;;29.40;35.40;;;;;;5091578;28;27495;-61
2021/04/01 08:44:44;;;;;;;7.10;3.42;;;29.00;36.50;;;;;;5105931;28;27345;-61
2021/04/01 08:47:50;;;;;;;6.55;3.65;;;28.40;37.70;;;;;;5106445;28;27380;-61
2021/04/01 08:50:59;;;;;;;7.07;4.10;;;28.10;38.10;;;;;;5106227;28;27451;-61
2021/04/01 08:54:03;;;;;;;6.35;2.83;;;28.20;38.70;;;;;;5093823;28;27420;-61
2021/04/01 08:57:20;;;;;;;6.68;3.97;;;28.20;38.50;;;;;;5088150;28;27535;-61
2021/04/01 09:00:08;;;;;;;6.85;3.30;;;28.70;38.00;;;;;;5090754;28;27406;-61
2021/04/01 09:02:55;;;;;;;12.50;4.65;;;28.90;37.00;;;;;;5091515;28;27459;-61
2021/04/01 09:05:51;;;;;;;4.90;3.15;;;29.20;37.10;;;;;;5106358;28;27478;-61
2021/04/01 09:08:39;;;;;;;7.22;3.50;;;29.40;36.40;;;;;;5090876;28;27515;-61
2021/04/01 09:11:33;;;;;;;6.70;3.35;;;29.80;36.70;;;;;;5091300;28;27460;-61
2021/04/01 09:14:31;;;;;;;8.02;3.38;;;30.30;36.30;;;;;;5106011;28;27497;-62
2021/04/01 09:17:19;;;;;;;5.25;3.08;;;31.00;35.30;;;;;;5106146;28;27305;-61
2021/04/01 09:20:30;;;;;;;7.68;4.10;;;31.20;35.00;;;;;;5106014;28;27399;-61
2021/04/01 09:23:14;;;;;;;8.48;3.35;;;31.50;34.10;;;;;;5102434;28;27359;-62
2021/04/01 09:25:59;;;;;;;6.68;2.95;;;31.40;34.30;;;;;;5090954;28;27489;-61
2021/04/01 09:28:44;;;;;;;4.50;3.35;;;31.50;34.80;;;;;;5105495;28;27402;-61
2021/04/01 09:31:36;;;;;;;9.68;3.65;;;31.60;34.70;;;;;;5105883;28;27929;-61
2021/04/01 09:34:21;;;;;;;6.93;3.30;;;31.90;34.70;;;;;;5105867;28;27474;-61
2021/04/01 09:37:19;;;;;;;7.03;3.45;;;32.50;34.20;;;;;;5106003;28;27404;-62
2021/04/01 09:40:12;;;;;;;6.80;3.70;;;32.90;33.10;;;;;;5105788;28;27363;-59
2021/04/01 09:43:16;;;;;;;7.82;3.65;;;33.20;32.60;;;;;;5105628;28;27876;-58
2021/04/01 09:46:13;;;;;;;6.32;3.28;;;33.20;32.70;;;;;;5105646;28;27428;-59
2021/04/01 09:49:05;;;;;;;6.18;3.08;;;33.00;32.90;;;;;;5105696;28;27447;-58
2021/04/01 09:51:53;;;;;;;5.38;3.13;;;32.70;33.40;;;;;;5090044;28;27498;-58
2021/04/01 09:54:38;;;;;;;12.85;3.17;;;32.30;33.90;;;;;;5104741;28;27959;-58
2021/04/01 09:57:27;;;;;;;5.45;3.22;;;32.00;34.40;;;;;;5090463;28;27471;-58
2021/04/01 10:00:27;;;;;;;48.03;10.77;;;31.70;35.00;;;;;;5104407;27;27399;-58
2021/04/01 10:03:14;;;;;;;14.35;4.75;;;31.20;34.40;;;;;;5105226;28;27423;-58
2021/04/01 10:05:58;;;;;;;13.05;4.63;;;30.20;35.20;;;;;;5090460;28;28008;-61
2021/04/01 10:08:43;;;;;;;14.50;4.53;;;29.70;38.20;;;;;;5105048;28;27427;-58
2021/04/01 10:11:28;;;;;;;14.45;4.30;;;29.70;38.50;;;;;;5089896;28;27436;-58
2021/04/01 10:14:13;;;;;;;8.13;3.42;;;30.00;38.10;;;;;;5090263;28;27499;-58
2021/04/01 10:17:02;;;;;;;12.50;3.50;;;30.50;37.70;;;;;;5105346;28;28013;-58
2021/04/01 10:19:55;;;;;;;9.88;3.38;;;31.20;36.70;;;;;;5090284;28;27441;-58
2021/04/01 10:22:40;;;;;;;7.63;3.00;;;31.80;36.20;;;;;;5089762;28;27337;-58
2021/04/01 10:25:27;;;;;;;7.70;3.03;;;32.50;35.00;;;;;;5104974;28;27321;-58
2021/04/01 10:28:25;;;;;;;8.20;3.08;;;33.10;34.20;;;;;;5076682;28;27341;-58
2021/04/01 10:31:19;;;;;;;5.80;2.90;;;33.50;33.50;;;;;;5105136;28;27498;-58
2021/04/01 10:34:31;;;;;;;11.15;3.15;;;34.00;32.70;;;;;;5105371;28;27386;-60
2021/04/01 10:37:16;;;;;;;7.65;2.97;;;34.50;32.30;;;;;;5105121;28;27375;-60
2021/04/01 10:40:04;;;;;;;6.85;2.90;;;35.00;32.00;;;;;;5105008;28;27389;-60
2021/04/01 10:43:01;;;;;;;6.97;2.55;;;35.40;31.50;;;;;;5106306;28;27416;-61
2021/04/01 10:45:46;;;;;;;7.68;2.33;;;35.80;30.70;;;;;;5106021;28;27415;-60
2021/04/01 10:48:36;;;;;;;10.02;3.08;;;36.20;30.40;;;;;;5091184;28;27482;-61
2021/04/01 10:51:21;;;;;;;5.32;2.35;;;36.60;30.30;;;;;;5089769;28;27659;-60
2021/04/01 10:54:10;;;;;;;3.63;2.35;;;37.00;29.90;;;;;;5105832;28;27312;-60
2021/04/01 10:56:55;;;;;;;10.07;2.53;;;37.40;29.00;;;;;;5105345;28;27588;-60
2021/04/01 10:59:45;;;;;;;9.02;2.42;;;37.70;29.20;;;;;;5104821;28;27468;-60
2021/04/01 11:02:34;;;;;;;2.92;2.50;;;38.00;28.90;;;;;;5104453;28;27375;-60
2021/04/01 11:05:24;;;;;;;9.95;2.50;;;38.20;28.80;;;;;;5104766;28;27483;-58
2021/04/01 11:08:10;;;;;;;3.90;2.35;;;38.40;28.70;;;;;;5087110;28;27400;-61
2021/04/01 11:10:59;;;;;;;6.57;2.88;;;38.50;28.00;;;;;;5104644;28;27320;-60
2021/04/01 11:13:47;;;;;;;6.65;2.40;;;38.70;27.80;;;;;;5108008;28;27324;-60
2021/04/01 11:16:31;;;;;;;4.70;2.30;;;38.90;27.70;;;;;;5078388;28;27557;-60
2021/04/01 11:19:16;;;;;;;8.57;2.38;;;39.10;27.90;;;;;;5078522;28;27452;-60
2021/04/01 11:22:02;;;;;;;8.38;2.30;;;39.30;27.90;;;;;;5089737;28;27495;-60
2021/04/01 11:24:47;;;;;;;4.07;2.42;;;39.40;28.10;;;;;;5108187;28;27420;-59
2021/04/01 11:27:31;;;;;;;3.83;2.05;;;39.40;28.10;;;;;;5107749;28;27482;-59
2021/04/01 11:30:17;;;;;;;8.65;2.35;;;39.50;27.50;;;;;;5092749;28;27416;-59
2021/04/01 11:33:02;;;;;;;5.35;2.47;;;39.60;27.70;;;;;;5092536;28;27451;-59
2021/04/01 11:35:58;;;;;;;7.63;2.20;;;39.50;27.40;;;;;;5092218;28;27458;-59
2021/04/01 11:38:48;;;;;;;6.78;2.67;;;39.40;27.50;;;;;;5094248;28;27501;-59
2021/04/01 11:41:33;;;;;;;5.05;2.10;;;39.30;27.60;;;;;;5107666;28;27384;-59
2021/04/01 11:44:18;;;;;;;5.22;2.28;;;39.30;27.30;;;;;;5106939;28;27376;-59
2021/04/01 11:47:12;;;;;;;8.30;2.58;;;39.50;27.40;;;;;;5104469;28;27402;-61
2021/04/01 11:49:57;;;;;;;6.25;2.30;;;39.60;27.40;;;;;;5107734;28;27396;-60
2021/04/01 11:52:42;;;;;;;5.07;2.40;;;39.70;27.70;;;;;;5104366;28;27348;-59
2021/04/01 11:55:27;;;;;;;3.78;2.28;;;39.80;27.40;;;;;;5077834;28;27343;-60
2021/04/01 11:58:12;;;;;;;5.57;1.95;;;39.80;27.10;;;;;;5088947;28;27866;-59
2021/04/01 12:01:14;;;;;;;4.22;2.13;;;39.90;27.20;;;;;;5074734;28;27364;-59
2021/04/01 12:04:08;;;;;;;5.45;1.90;;;40.00;27.50;;;;;;5107445;28;27486;-59
2021/04/01 12:06:53;;;;;;;7.00;2.10;;;40.30;27.60;;;;;;5093174;28;27442;-61
2021/04/01 12:09:38;;;;;;;9.00;2.28;;;40.40;27.20;;;;;;5107037;28;27433;-60
2021/04/01 12:12:33;;;;;;;4.60;2.15;;;40.30;26.70;;;;;;5091907;28;27492;-60
2021/04/01 12:15:34;;;;;;;27.13;3.35;;;39.80;26.90;;;;;;5107217;28;27458;-59
2021/04/01 12:18:19;;;;;;;32.33;4.00;;;38.70;21.10;;;;;;5107291;28;27518;-58
2021/04/01 12:21:05;;;;;;;26.60;3.45;;;37.40;22.20;;;;;;5092093;28;27641;-59
2021/04/01 12:23:58;;;;;;;21.98;4.05;;;36.80;24.90;;;;;;5090715;28;27507;-60
2021/04/01 12:26:44;;;;;;;16.20;3.40;;;36.80;25.90;;;;;;5103704;28;27379;-59
2021/04/01 12:29:28;;;;;;;14.73;2.55;;;37.20;25.50;;;;;;5106935;28;27328;-59
2021/04/01 12:32:13;;;;;;;15.00;2.42;;;37.30;24.60;;;;;;5107011;28;27881;-59
2021/04/01 12:35:24;;;;;;;13.27;3.00;;;37.40;26.00;;;;;;5091392;28;27352;-59
2021/04/01 12:38:13;;;;;;;8.80;2.50;;;37.80;26.30;;;;;;5103765;28;27404;-59
2021/04/01 12:40:59;;;;;;;11.23;2.83;;;38.10;26.70;;;;;;5103342;28;27358;-59
2021/04/01 12:43:44;;;;;;;7.05;2.40;;;38.40;27.00;;;;;;5105738;28;27335;-59
2021/04/01 12:46:39;;;;;;;5.05;2.05;;;38.60;27.30;;;;;;5106549;28;27377;-59
2021/04/01 12:49:30;;;;;;;6.65;2.15;;;39.00;26.90;;;;;;5106745;28;27351;-59
2021/04/01 12:52:14;;;;;;;3.85;2.90;;;39.30;26.60;;;;;;5092229;28;27337;-59
2021/04/01 12:54:59;;;;;;;7.15;2.13;;;39.50;25.80;;;;;;5102854;28;27357;-59
2021/04/01 12:57:44;;;;;;;5.35;2.20;;;39.90;25.80;;;;;;5106281;28;27533;-59
2021/04/01 13:00:39;;;;;;;8.05;2.20;;;40.10;26.00;;;;;;5088072;28;27419;-61
2021/04/01 13:03:25;;;;;;;17.67;2.97;;;40.00;24.30;;;;;;5106267;28;27327;-58
2021/04/01 13:06:15;;;;;;;20.05;3.55;;;39.10;21.70;;;;;;5103286;28;27395;-58
2021/04/01 13:09:22;;;;;;;59.08;5.78;;;37.90;22.20;;;;;;5091692;28;27503;-59
2021/04/01 13:12:10;;;;;;;26.02;3.78;;;36.70;23.10;;;;;;5106187;28;27406;-59
2021/04/01 13:14:54;;;;;;;13.15;2.53;;;35.50;24.10;;;;;;5106006;28;27494;-58
2021/04/01 13:17:39;;;;;;;6.82;2.05;;;34.70;22.90;;;;;;5106268;28;27411;-59
2021/04/01 13:20:23;;;;;;;9.70;2.75;;;33.70;24.10;;;;;;5105849;28;27502;-59
2021/04/01 13:23:12;;;;;;;11.35;2.25;;;33.10;26.40;;;;;;5091242;28;27400;-59
2021/04/01 13:25:57;;;;;;;10.55;2.75;;;32.80;26.80;;;;;;5088298;28;27387;-59
2021/04/01 13:28:43;;;;;;;7.65;2.38;;;32.50;26.00;;;;;;5106072;28;28004;-60
2021/04/01 13:34:28;;;;;;;4.97;2.22;;;32.40;29.00;;;;;;5105485;27;27439;-59
2021/04/01 13:37:20;;;;;;;7.50;2.08;;;32.90;29.70;;;;;;5091792;28;27477;-58
2021/04/01 13:40:13;;;;;;;5.53;2.08;;;33.50;30.20;;;;;;5105906;28;27416;-60
2021/04/01 13:43:01;;;;;;;6.22;1.80;;;34.00;29.60;;;;;;5105684;28;27420;-61
2021/04/01 13:45:45;;;;;;;7.10;2.13;;;34.60;28.80;;;;;;5104748;28;27473;-59
2021/04/01 13:48:32;;;;;;;9.00;2.00;;;35.10;29.00;;;;;;5105844;28;27445;-59
2021/04/01 13:51:21;;;;;;;7.78;2.10;;;35.50;28.90;;;;;;5090905;28;27444;-59
2021/04/01 13:55:14;;;;;;;5.88;2.03;;;35.80;27.20;;;;;;5105715;28;27503;-59
2021/04/01 14:09:46;;;;;;;9.00;2.10;;;35.30;25.90;;;;;;5105207;28;27504;-59
2021/04/01 14:12:30;;;;;;;16.23;3.08;;;35.20;26.90;;;;;;5105127;28;27467;-61
2021/04/01 14:15:15;;;;;;;13.05;2.33;;;35.10;26.50;;;;;;5090016;28;27861;-59
2021/04/01 14:18:00;;;;;;;11.25;2.50;;;34.80;26.70;;;;;;5086705;28;27520;-59
2021/04/01 14:20:44;;;;;;;7.47;2.63;;;34.40;26.20;;;;;;5105250;28;27537;-59
2021/04/01 14:23:30;;;;;;;11.20;2.47;;;34.00;26.50;;;;;;5105304;28;27413;-59
2021/04/01 14:26:24;;;;;;;12.70;2.30;;;33.50;26.30;;;;;;5105132;28;28057;-59
2021/04/01 14:29:09;;;;;;;6.68;2.20;;;33.10;25.60;;;;;;5101817;28;27364;-59
2021/04/01 14:31:53;;;;;;;7.70;2.40;;;32.80;27.20;;;;;;5104853;28;27384;-59
2021/04/01 14:34:38;;;;;;;11.43;3.00;;;32.60;27.70;;;;;;5089765;28;27458;-59
2021/04/01 14:37:33;;;;;;;6.50;2.30;;;32.50;28.30;;;;;;5089768;28;27359;-59
2021/04/01 14:40:18;;;;;;;9.35;2.40;;;32.50;29.10;;;;;;5104957;28;27399;-59
2021/04/01 14:43:12;;;;;;;8.85;2.70;;;32.50;27.40;;;;;;5089976;28;27418;-60
2021/04/01 14:45:56;;;;;;;19.67;3.20;;;32.60;28.70;;;;;;5090265;28;27727;-59
2021/04/01 14:48:41;;;;;;;8.85;2.67;;;32.60;28.60;;;;;;5104532;28;27320;-59
2021/04/01 14:51:26;;;;;;;5.95;2.58;;;32.50;28.00;;;;;;5104497;28;27395;-60
2021/04/01 14:54:12;;;;;;;5.55;2.90;;;32.50;28.60;;;;;;5104738;28;27379;-59
2021/04/01 14:57:06;;;;;;;6.82;2.75;;;32.50;27.90;;;;;;5101228;28;27411;-60
2021/04/01 14:59:52;;;;;;;5.57;2.35;;;32.50;28.50;;;;;;5104643;28;27341;-59
2021/04/01 15:02:38;;;;;;;7.45;2.30;;;32.50;29.20;;;;;;5085943;28;27412;-60
2021/04/01 15:05:22;;;;;;;7.22;2.47;;;32.50;31.50;;;;;;5104491;28;27341;-60
2021/04/01 15:08:08;;;;;;;3.35;2.42;;;32.30;30.10;;;;;;5089364;28;27337;-60
2021/04/01 15:10:53;;;;;;;10.52;2.70;;;32.30;30.50;;;;;;5089259;28;27392;-60
2021/04/01 15:13:38;;;;;;;6.20;2.80;;;32.30;29.50;;;;;;5089275;28;27364;-60
2021/04/01 15:16:22;;;;;;;8.63;2.63;;;32.20;29.80;;;;;;5104259;28;27387;-60
2021/04/01 15:19:08;;;;;;;7.90;2.50;;;32.10;29.40;;;;;;5104588;28;27377;-60
2021/04/01 15:21:52;;;;;;;7.03;2.35;;;31.90;30.10;;;;;;5103905;28;27886;-59
2021/04/01 15:24:37;;;;;;;3.35;2.42;;;31.70;29.90;;;;;;5104373;28;27320;-60
2021/04/01 15:27:22;;;;;;;7.60;2.45;;;31.50;29.70;;;;;;5085772;28;27375;-59
2021/04/01 15:30:07;;;;;;;5.45;2.67;;;31.30;29.80;;;;;;5104433;28;27339;-61
2021/04/01 15:32:52;;;;;;;4.20;1.85;;;31.10;28.90;;;;;;5104267;28;27333;-61
2021/04/01 15:35:37;;;;;;;8.82;2.72;;;30.90;29.60;;;;;;5103783;28;27424;-60
2021/04/01 15:38:22;;;;;;;7.43;2.20;;;30.80;29.60;;;;;;5104009;28;27344;-60
2021/04/01 15:41:06;;;;;;;7.18;2.35;;;30.50;29.60;;;;;;5103872;28;27326;-60
2021/04/01 15:43:53;;;;;;;7.63;2.70;;;30.30;29.50;;;;;;5103489;28;27325;-60
2021/04/01 15:46:38;;;;;;;3.83;2.45;;;30.10;30.10;;;;;;5088959;28;27419;-60
2021/04/01 15:49:22;;;;;;;6.90;2.60;;;30.00;31.30;;;;;;5085424;28;27348;-60
2021/04/01 15:52:07;;;;;;;5.95;2.60;;;29.80;31.10;;;;;;5100489;28;27317;-60
2021/04/01 15:54:52;;;;;;;8.80;3.05;;;29.60;31.60;;;;;;5103901;28;27373;-60
2021/04/01 15:57:37;;;;;;;6.82;2.70;;;29.30;31.70;;;;;;5103945;27;27399;-60
2021/04/01 16:00:23;;;;;;;4.97;2.42;;;29.10;32.10;;;;;;5107401;28;27357;-60
2021/04/01 16:03:09;;;;;;;6.53;2.83;;;28.90;31.20;;;;;;5107625;28;27350;-60
2021/04/01 16:05:53;;;;;;;6.75;2.85;;;28.70;31.50;;;;;;5107198;28;27313;-59